.
WxDataArchive / Data Records for 2007-12-17
2007-12-16 December 2007 2007-12-18

Data Records for Monday, 17 December 2007

Time	Temp	Chill	HIndex	Humid	Dewpt	 Wind 	HiWind	WindDir	Rain 	Barom 
-----	----	-----	------	-----	-----	------	------	-------	-----	----- 
00:00	19.4	19.4	19.4	78	13.7	3	7	270	0.00	30.064 
00:05	19.4	19.4	19.4	78	13.7	3	9	270	0.00	30.063 
00:10	19.4	19.4	19.4	78	13.7	2	5	270	0.00	30.063 
00:15	19.4	19.4	19.4	78	13.7	2	8	248	0.00	30.063 
00:20	19.4	19.4	19.4	79	14.0	2	4	248	0.00	30.062 
00:25	19.4	19.4	19.4	79	14.0	2	3	225	0.00	30.063 
00:30	19.2	19.2	19.2	79	13.8	3	7	270	0.00	30.064 
00:35	19.2	19.2	19.2	79	13.8	2	4	248	0.00	30.064 
00:40	19.2	19.2	19.2	79	13.8	2	4	248	0.00	30.064 
00:45	19.2	19.2	19.2	80	14.1	2	5	248	0.00	30.064 
00:50	19.2	19.2	19.2	80	14.1	2	6	270	0.00	30.065 
00:55	19.1	19.1	19.1	80	14.0	2	5	248	0.00	30.065 
01:00	19.1	19.1	19.1	79	13.7	2	4	248	0.00	30.069 
01:05	18.9	18.9	18.9	80	13.8	1	6	270	0.00	30.071 
01:10	18.9	18.9	18.9	80	13.8	3	5	248	0.00	30.074 
01:15	18.9	18.9	18.9	80	13.8	3	6	248	0.00	30.077 
01:20	18.8	18.8	18.8	80	13.7	3	7	248	0.00	30.078 
01:25	18.8	18.8	18.8	80	13.7	3	8	270	0.00	30.079 
01:30	18.8	18.8	18.8	80	13.7	2	5	270	0.00	30.078 
01:35	18.9	18.9	18.9	81	14.1	2	4	270	0.00	30.079 
01:40	18.9	18.9	18.9	81	14.1	1	5	248	0.00	30.080 
01:45	18.9	18.9	18.9	81	14.1	2	4	270	0.00	30.080 
01:50	18.8	18.8	18.8	81	14.0	2	6	248	0.00	30.082 
01:55	18.6	18.6	18.6	81	13.8	2	5	248	0.00	30.086 
02:00	18.6	18.6	18.6	81	13.8	3	6	248	0.00	30.088 
02:05	18.4	18.4	18.4	81	13.6	3	9	270	0.00	30.091 
02:10	18.4	18.4	18.4	82	13.8	3	7	270	0.00	30.091 
02:15	18.3	18.3	18.3	82	13.7	3	9	270	0.00	30.093 
02:20	18.3	18.3	18.3	82	13.7	3	7	270	0.00	30.094 
02:25	18.1	18.1	18.1	82	13.5	3	5	270	0.00	30.096 
02:30	18.0	18.0	18.0	82	13.5	3	5	270	0.00	30.099 
02:35	17.8	17.8	17.8	82	13.3	3	7	270	0.00	30.101 
02:40	17.7	17.7	17.7	83	13.4	3	7	270	0.00	30.105 
02:45	17.5	17.5	17.5	83	13.2	3	11	248	0.00	30.109 
02:50	17.3	17.3	17.3	83	13.0	3	6	248	0.00	30.110 
02:55	17.2	17.2	17.2	83	12.9	3	6	270	0.00	30.111 
03:00	17.0	17.0	17.0	83	12.7	3	5	270	0.00	30.116 
03:05	16.9	10.6	16.9	83	12.6	4	11	270	0.00	30.116 
03:10	16.7	16.7	16.7	84	12.7	3	10	248	0.00	30.120 
03:15	16.7	16.7	16.7	84	12.7	2	7	248	0.00	30.123 
03:20	16.7	16.7	16.7	84	12.7	2	6	270	0.00	30.124 
03:25	16.7	16.7	16.7	84	12.7	3	6	248	0.00	30.125 
03:30	16.7	16.7	16.7	84	12.7	2	5	248	0.00	30.127 
03:35	16.7	16.7	16.7	84	12.7	3	6	270	0.00	30.128 
03:40	16.7	16.7	16.7	84	12.7	2	5	248	0.00	30.128 
03:45	16.5	16.5	16.5	84	12.5	2	4	248	0.00	30.125 
03:50	16.5	16.5	16.5	84	12.5	2	6	248	0.00	30.124 
03:55	16.5	16.5	16.5	84	12.5	3	7	248	0.00	30.123 
04:00	16.5	16.5	16.5	84	12.5	3	6	248	0.00	30.125 
04:05	16.5	16.5	16.5	84	12.5	3	7	248	0.00	30.126 
04:10	16.4	16.4	16.4	84	12.4	3	10	248	0.00	30.129 
04:15	16.4	16.4	16.4	84	12.4	3	5	270	0.00	30.132 
04:20	16.2	16.2	16.2	84	12.2	3	7	270	0.00	30.135 
04:25	16.2	16.2	16.2	84	12.2	3	9	248	0.00	30.133 
04:30	16.2	16.2	16.2	84	12.2	3	7	248	0.00	30.134 
04:35	16.2	16.2	16.2	84	12.2	3	7	248	0.00	30.140 
04:40	16.4	16.4	16.4	84	12.4	3	8	248	0.00	30.140 
04:45	16.4	16.4	16.4	85	12.7	2	4	270	0.00	30.143 
04:50	16.5	10.2	16.5	85	12.8	4	9	248	0.00	30.139 
04:55	16.7	16.7	16.7	85	13.0	3	8	248	0.00	30.140 
05:00	16.7	16.7	16.7	86	13.3	3	7	248	0.00	30.141 
05:05	16.9	16.9	16.9	86	13.5	3	10	270	0.00	30.143 
05:10	17.0	17.0	17.0	86	13.6	2	6	225	0.00	30.142 
05:15	17.2	17.2	17.2	87	14.0	3	10	270	0.00	30.142 
05:20	17.2	17.2	17.2	87	14.0	2	6	248	0.00	30.142 
05:25	17.3	17.3	17.3	87	14.1	3	6	248	0.00	30.144 
05:30	17.5	17.5	17.5	87	14.3	2	9	248	0.00	30.140 
05:35	17.7	17.7	17.7	87	14.5	2	5	248	0.00	30.141 
05:40	17.7	17.7	17.7	88	14.8	3	5	248	0.00	30.142 
05:45	17.8	17.8	17.8	88	14.9	2	5	248	0.00	30.142 
05:50	18.0	18.0	18.0	87	14.8	2	6	248	0.00	30.142 
05:55	18.1	18.1	18.1	87	14.9	2	6	248	0.00	30.146 
06:00	18.1	18.1	18.1	87	14.9	2	5	248	0.00	30.148 
06:05	18.3	18.3	18.3	87	15.1	2	6	248	0.00	30.151 
06:10	18.3	12.3	18.3	86	14.8	4	10	248	0.00	30.150 
06:15	18.3	11.0	18.3	86	14.8	5	11	248	0.00	30.154 
06:20	18.4	18.4	18.4	85	14.7	3	7	248	0.00	30.157 
06:25	18.4	18.4	18.4	85	14.7	3	8	248	0.00	30.158 
06:30	18.4	18.4	18.4	85	14.7	2	7	248	0.00	30.158 
06:35	18.6	18.6	18.6	85	14.9	2	7	248	0.00	30.159 
06:40	18.4	18.4	18.4	85	14.7	3	5	248	0.00	30.158 
06:45	18.4	18.4	18.4	84	14.4	2	6	248	0.00	30.158 
06:50	18.4	18.4	18.4	84	14.4	2	5	248	0.00	30.160 
06:55	18.4	18.4	18.4	84	14.4	3	7	248	0.00	30.164 
07:00	18.4	18.4	18.4	84	14.4	3	7	248	0.00	30.165 
07:05	18.4	18.4	18.4	84	14.4	3	11	248	0.00	30.171 
07:10	18.6	18.6	18.6	83	14.3	2	7	248	0.00	30.170 
07:15	18.4	18.4	18.4	83	14.1	3	6	248	0.00	30.171 
07:20	18.4	18.4	18.4	83	14.1	3	7	248	0.00	30.173 
07:25	18.4	18.4	18.4	83	14.1	2	7	248	0.00	30.173 
07:30	18.3	18.3	18.3	83	14.0	3	6	248	0.00	30.174 
07:35	18.3	18.3	18.3	83	14.0	3	10	248	0.00	30.178 
07:40	18.3	18.3	18.3	83	14.0	2	7	270	0.00	30.182 
07:45	18.1	18.1	18.1	82	13.5	3	8	248	0.00	30.181 
07:50	18.1	18.1	18.1	82	13.5	3	9	248	0.00	30.182 
07:55	18.1	18.1	18.1	82	13.5	2	5	270	0.00	30.179 
08:00	18.1	18.1	18.1	82	13.5	2	4	270	0.00	30.179 
08:05	18.1	18.1	18.1	82	13.5	1	4	248	0.00	30.180 
08:10	18.1	18.1	18.1	82	13.5	1	3	248	0.00	30.178 
08:15	18.1	18.1	18.1	82	13.5	1	5	248	0.00	30.184 
08:20	18.1	18.1	18.1	82	13.5	2	5	248	0.00	30.183 
08:25	18.1	18.1	18.1	82	13.5	2	5	248	0.00	30.188 
08:30	18.0	18.0	18.0	81	13.2	2	5	248	0.00	30.184 
08:35	18.0	18.0	18.0	81	13.2	1	4	248	0.00	30.188 
08:40	18.0	18.0	18.0	82	13.5	1	4	248	0.00	30.190 
08:45	18.0	18.0	18.0	81	13.2	2	5	248	0.00	30.193 
08:50	17.8	17.8	17.8	81	13.0	1	5	248	0.00	30.196 
08:55	18.0	18.0	18.0	82	13.5	0	3	248	0.00	30.192 
09:00	18.1	18.1	18.1	83	13.8	1	5	248	0.00	30.196 
09:05	18.1	18.1	18.1	83	13.8	2	6	248	0.00	30.203 
09:10	18.1	18.1	18.1	82	13.5	1	6	248	0.00	30.207 
09:15	18.1	18.1	18.1	82	13.5	2	4	248	0.00	30.209 
09:20	18.1	18.1	18.1	82	13.5	2	4	248	0.00	30.210 
09:25	18.0	18.0	18.0	82	13.5	2	5	248	0.00	30.212 
09:30	18.1	18.1	18.1	82	13.5	2	5	248	0.00	30.219 
09:35	18.1	18.1	18.1	82	13.5	3	6	248	0.00	30.223 
09:40	18.3	18.3	18.3	82	13.7	2	5	270	0.00	30.224 
09:45	18.4	18.4	18.4	82	13.8	1	3	225	0.00	30.225 
09:50	18.6	18.6	18.6	82	14.0	1	5	248	0.00	30.225 
09:55	18.8	18.8	18.8	82	14.2	2	4	248	0.00	30.226 
10:00	18.9	18.9	18.9	81	14.1	2	6	270	0.00	30.225 
10:05	19.1	19.1	19.1	81	14.2	1	4	270	0.00	30.225 
10:10	19.2	19.2	19.2	81	14.3	2	6	248	0.00	30.227 
10:15	19.4	19.4	19.4	81	14.5	2	6	248	0.00	30.233 
10:20	19.5	19.5	19.5	81	14.6	2	4	248	0.00	30.238 
10:25	19.7	19.7	19.7	80	14.6	2	5	248	0.00	30.235 
10:30	19.9	19.9	19.9	80	14.7	1	3	248	0.00	30.233 
10:35	20.0	20.0	20.0	80	14.8	1	2	248	0.00	30.234 
10:40	20.3	20.3	20.3	80	15.1	1	3	248	0.00	30.238 
10:45	20.5	20.5	20.5	80	15.3	1	3	248	0.00	30.241 
10:50	20.6	20.6	20.6	80	15.4	1	4	248	0.00	30.241 
10:55	20.6	20.6	20.6	79	15.1	2	6	248	0.00	30.242 
11:00	20.6	20.6	20.6	78	14.8	3	9	248	0.00	30.242 
11:05	20.5	14.8	20.5	80	15.3	4	8	248	0.00	30.242 
11:10	20.3	20.3	20.3	76	14.0	3	6	270	0.00	30.244 
11:15	20.6	20.6	20.6	76	14.3	3	10	270	0.00	30.242 
11:20	21.0	21.0	21.0	76	14.6	2	7	248	0.00	30.239 
11:25	21.1	21.1	21.1	75	14.4	2	6	248	0.00	30.232 
11:30	21.1	21.1	21.1	76	14.7	3	12	270	0.00	30.229 
11:35	21.4	21.4	21.4	76	15.0	2	9	248	0.00	30.228 
11:40	21.3	15.7	21.3	75	14.6	4	10	270	0.00	30.237 
11:45	21.0	21.0	21.0	75	14.3	3	6	270	0.00	30.235 
11:50	21.0	21.0	21.0	75	14.3	2	6	248	0.00	30.232 
11:55	21.1	21.1	21.1	76	14.7	2	5	248	0.00	30.231 
12:00	21.4	21.4	21.4	76	15.0	2	5	248	0.00	30.232 
12:05	21.6	21.6	21.6	77	15.5	2	6	248	0.00	30.229 
12:10	21.6	21.6	21.6	77	15.5	2	5	248	0.00	30.229 
12:15	21.6	21.6	21.6	77	15.5	2	9	248	0.00	30.227 
12:20	21.6	21.6	21.6	77	15.5	1	3	248	0.00	30.226 
12:25	21.9	21.9	21.9	78	16.1	1	2	248	0.00	30.225 
12:30	21.9	21.9	21.9	77	15.8	2	6	248	0.00	30.227 
12:35	21.6	16.1	21.6	76	15.2	4	9	270	0.00	30.230 
12:40	21.4	21.4	21.4	76	15.0	3	7	270	0.00	30.227 
12:45	21.6	21.6	21.6	76	15.2	2	6	248	0.00	30.228 
12:50	21.8	21.8	21.8	77	15.7	1	4	248	0.00	30.229 
12:55	21.9	21.9	21.9	76	15.5	3	11	248	0.00	30.232 
13:00	21.8	21.8	21.8	75	15.1	3	6	270	0.00	30.228 
13:05	21.9	21.9	21.9	77	15.8	2	7	270	0.00	30.226 
13:10	21.8	21.8	21.8	75	15.1	3	9	270	0.00	30.227 
13:15	21.8	21.8	21.8	76	15.4	2	6	270	0.00	30.225 
13:20	21.9	21.9	21.9	76	15.5	3	6	248	0.00	30.225 
13:25	22.1	22.1	22.1	76	15.7	3	6	248	0.00	30.220 
13:30	22.2	22.2	22.2	76	15.8	3	6	248	0.00	30.215 
13:35	22.7	22.7	22.7	76	16.3	2	7	248	0.00	30.209 
13:40	22.7	22.7	22.7	75	16.0	2	5	248	0.00	30.208 
13:45	22.7	22.7	22.7	74	15.7	2	9	248	0.00	30.207 
13:50	22.7	22.7	22.7	74	15.7	3	6	248	0.00	30.207 
13:55	22.5	22.5	22.5	74	15.5	3	10	248	0.00	30.208 
14:00	22.5	22.5	22.5	75	15.8	3	7	248	0.00	30.207 
14:05	22.7	22.7	22.7	76	16.3	2	4	248	0.00	30.209 
14:10	22.9	22.9	22.9	76	16.5	3	6	248	0.00	30.209 
14:15	22.7	22.7	22.7	75	16.0	3	7	248	0.00	30.209 
14:20	22.7	22.7	22.7	76	16.3	2	6	248	0.00	30.209 
14:25	23.2	23.2	23.2	76	16.8	3	7	248	0.00	30.212 
14:30	23.0	17.7	23.0	75	16.3	4	11	270	0.00	30.210 
14:35	22.5	22.5	22.5	75	15.8	3	12	270	0.00	30.211 
14:40	22.4	22.4	22.4	76	16.0	3	10	248	0.00	30.217 
14:45	22.2	22.2	22.2	76	15.8	3	7	270	0.00	30.215 
14:50	22.2	22.2	22.2	77	16.1	2	7	248	0.00	30.214 
14:55	22.4	22.4	22.4	77	16.3	2	5	248	0.00	30.212 
15:00	22.4	22.4	22.4	77	16.3	2	4	248	0.00	30.212 
15:05	22.5	22.5	22.5	77	16.4	2	7	248	0.00	30.210 
15:10	22.5	22.5	22.5	76	16.1	3	6	248	0.00	30.210 
15:15	22.4	22.4	22.4	77	16.3	2	5	248	0.00	30.212 
15:20	22.2	22.2	22.2	76	15.8	3	7	270	0.00	30.213 
15:25	22.1	22.1	22.1	77	16.0	3	8	248	0.00	30.212 
15:30	22.1	22.1	22.1	77	16.0	3	6	248	0.00	30.211 
15:35	22.1	22.1	22.1	78	16.3	1	4	248	0.00	30.212 
15:40	22.2	22.2	22.2	78	16.4	2	6	248	0.00	30.213 
15:45	22.4	22.4	22.4	78	16.6	2	7	248	0.00	30.213 
15:50	22.5	22.5	22.5	78	16.7	3	6	248	0.00	30.214 
15:55	22.4	22.4	22.4	77	16.3	1	5	270	0.00	30.215 
16:00	22.4	22.4	22.4	77	16.3	1	5	248	0.00	30.215 
16:05	22.2	22.2	22.2	77	16.1	2	6	270	0.00	30.219 
16:10	22.2	22.2	22.2	77	16.1	2	4	248	0.00	30.218 
16:15	22.1	22.1	22.1	77	16.0	2	5	248	0.00	30.222 
16:20	21.9	21.9	21.9	77	15.8	2	7	248	0.00	30.224 
16:25	21.8	21.8	21.8	77	15.7	2	6	248	0.00	30.224 
16:30	21.8	21.8	21.8	77	15.7	1	4	248	0.00	30.225 
16:35	21.6	21.6	21.6	77	15.5	1	4	248	0.00	30.226 
16:40	21.3	21.3	21.3	78	15.5	2	5	248	0.00	30.226 
16:45	21.0	21.0	21.0	79	15.5	2	4	248	0.00	30.228 
16:50	20.8	20.8	20.8	79	15.3	1	3	248	0.00	30.229 
16:55	20.6	20.6	20.6	80	15.4	1	4	248	0.00	30.228 
17:00	20.5	20.5	20.5	81	15.6	2	4	248	0.00	30.227 
17:05	20.5	20.5	20.5	81	15.6	1	5	248	0.00	30.226 
17:10	20.3	20.3	20.3	81	15.4	1	5	248	0.00	30.225 
17:15	20.3	20.3	20.3	81	15.4	1	6	248	0.00	30.226 
17:20	20.2	20.2	20.2	81	15.3	1	5	225	0.00	30.228 
17:25	20.2	20.2	20.2	82	15.6	1	5	248	0.00	30.228 
17:30	20.0	20.0	20.0	82	15.4	2	4	248	0.00	30.226 
17:35	20.0	20.0	20.0	82	15.4	2	6	248	0.00	30.224 
17:40	19.9	19.9	19.9	82	15.3	1	5	248	0.00	30.226 
17:45	19.9	19.9	19.9	82	15.3	2	6	248	0.00	30.227 
17:50	19.9	19.9	19.9	82	15.3	2	6	248	0.00	30.227 
17:55	19.9	19.9	19.9	83	15.6	2	6	248	0.00	30.230 
18:00	19.9	19.9	19.9	83	15.6	2	5	248	0.00	30.231 
18:05	19.7	19.7	19.7	83	15.4	2	5	248	0.00	30.236 
18:10	19.7	19.7	19.7	83	15.4	3	9	248	0.00	30.238 
18:15	19.7	19.7	19.7	83	15.4	3	10	248	0.00	30.236 
18:20	19.7	13.9	19.7	84	15.7	4	12	248	0.00	30.238 
18:25	19.7	19.7	19.7	84	15.7	3	7	248	0.00	30.240 
18:30	19.7	19.7	19.7	84	15.7	3	7	248	0.00	30.240 
18:35	19.7	19.7	19.7	84	15.7	3	8	248	0.00	30.240 
18:40	19.7	19.7	19.7	85	15.9	2	5	248	0.00	30.241 
18:45	19.7	19.7	19.7	85	15.9	2	4	248	0.00	30.241 
18:50	19.7	19.7	19.7	85	15.9	2	4	248	0.00	30.242 
18:55	19.7	19.7	19.7	85	15.9	3	11	248	0.00	30.243 
19:00	19.7	19.7	19.7	85	15.9	3	10	248	0.00	30.245 
19:05	19.9	19.9	19.9	85	16.1	2	5	248	0.00	30.252 
19:10	19.9	19.9	19.9	85	16.1	2	5	248	0.00	30.256 
19:15	19.9	19.9	19.9	85	16.1	1	4	248	0.00	30.256 
19:20	19.9	19.9	19.9	86	16.4	1	5	248	0.00	30.254 
19:25	19.9	19.9	19.9	86	16.4	1	5	248	0.00	30.256 
19:30	19.9	19.9	19.9	86	16.4	2	7	248	0.00	30.256 
19:35	19.9	19.9	19.9	86	16.4	2	5	248	0.00	30.257 
19:40	19.9	19.9	19.9	86	16.4	3	5	248	0.00	30.256 
19:45	19.9	19.9	19.9	86	16.4	3	7	248	0.00	30.257 
19:50	19.9	19.9	19.9	86	16.4	2	6	248	0.00	30.257 
19:55	19.9	19.9	19.9	86	16.4	1	5	248	0.00	30.257 
20:00	19.9	19.9	19.9	86	16.4	1	3	248	0.00	30.259 
20:05	19.9	19.9	19.9	86	16.4	1	5	248	0.00	30.259 
20:10	19.9	19.9	19.9	86	16.4	2	5	248	0.00	30.258 
20:15	19.9	19.9	19.9	86	16.4	2	5	248	0.00	30.255 
20:20	19.9	19.9	19.9	86	16.4	2	5	248	0.00	30.257 
20:25	19.7	19.7	19.7	86	16.2	2	7	248	0.00	30.256 
20:30	19.7	19.7	19.7	86	16.2	2	6	248	0.00	30.253 
20:35	19.7	19.7	19.7	87	16.5	3	7	248	0.00	30.256 
20:40	19.7	19.7	19.7	87	16.5	2	5	248	0.00	30.258 
20:45	19.7	19.7	19.7	87	16.5	3	9	248	0.00	30.257 
20:50	19.7	19.7	19.7	87	16.5	3	6	248	0.00	30.258 
20:55	19.7	19.7	19.7	87	16.5	2	6	248	0.00	30.258 
21:00	19.9	19.9	19.9	87	16.7	2	6	248	0.00	30.256 
21:05	19.9	19.9	19.9	87	16.7	1	4	248	0.00	30.257 
21:10	19.9	19.9	19.9	87	16.7	2	5	248	0.00	30.256 
21:15	19.9	19.9	19.9	87	16.7	2	5	248	0.00	30.253 
21:20	19.9	19.9	19.9	87	16.7	2	5	248	0.00	30.255 
21:25	19.7	19.7	19.7	87	16.5	3	10	248	0.00	30.257 
21:30	19.9	19.9	19.9	87	16.7	2	5	248	0.00	30.251 
21:35	19.9	19.9	19.9	87	16.7	2	4	248	0.00	30.250 
21:40	19.9	19.9	19.9	87	16.7	2	4	248	0.00	30.250 
21:45	19.9	19.9	19.9	88	16.9	2	5	248	0.00	30.251 
21:50	20.0	20.0	20.0	88	17.0	2	5	248	0.00	30.251 
21:55	20.0	20.0	20.0	88	17.0	3	7	248	0.00	30.251 
22:00	20.0	20.0	20.0	88	17.0	3	5	248	0.00	30.250 
22:05	20.0	20.0	20.0	88	17.0	2	7	248	0.00	30.251 
22:10	20.0	20.0	20.0	88	17.0	3	8	248	0.00	30.253 
22:15	20.0	20.0	20.0	88	17.0	2	7	248	0.00	30.254 
22:20	20.0	20.0	20.0	88	17.0	2	7	248	0.00	30.254 
22:25	20.0	20.0	20.0	88	17.0	1	4	248	0.00	30.255 
22:30	20.0	20.0	20.0	88	17.0	2	9	248	0.00	30.256 
22:35	20.2	20.2	20.2	88	17.2	2	4	270	0.00	30.255 
22:40	20.2	20.2	20.2	88	17.2	3	6	248	0.00	30.256 
22:45	20.3	20.3	20.3	88	17.3	2	5	248	0.00	30.257 
22:50	20.3	20.3	20.3	88	17.3	2	6	248	0.00	30.255 
22:55	20.2	20.2	20.2	88	17.2	2	5	248	0.00	30.255 
23:00	20.2	20.2	20.2	88	17.2	1	4	248	0.00	30.255 
23:05	20.0	20.0	20.0	88	17.0	1	5	248	0.00	30.252 
23:10	20.0	20.0	20.0	88	17.0	0	3	248	0.00	30.249 
23:15	19.9	19.9	19.9	88	16.9	1	6	248	0.00	30.246 
23:20	19.9	19.9	19.9	88	16.9	1	4	248	0.00	30.242 
23:25	19.7	19.7	19.7	88	16.7	1	3	248	0.00	30.242 
23:30	19.7	19.7	19.7	88	16.7	0	2	248	0.00	30.241 
23:35	19.5	19.5	19.5	88	16.5	1	3	248	0.00	30.241 
23:40	19.5	19.5	19.5	88	16.5	1	4	248	0.00	30.241 
23:45	19.7	19.7	19.7	89	17.0	1	4	248	0.00	30.242 
23:50	19.9	19.9	19.9	89	17.2	1	4	248	0.00	30.243 
23:55	19.9	19.9	19.9	89	17.2	1	5	248	0.00	30.242 

CoCoRaHS
IN-AL-39
A2 Web Hosting
Creative Commons License
GoDaddy
Look for:

loaded 2017-12-11 14:05:04 • last modified 2010-11-18 10:43:29
Privacy PolicyDisclaimer
• wx.awcolley.com is powered by PmWiki v.2002016 •
• all content (unless otherwise noted) © 2017 A W Colley